createdAt,value
2023-01-17T00:00:02.048Z,968.4
2023-01-17T00:05:01.786Z,968.45
2023-01-17T00:10:01.544Z,968.62
2023-01-17T00:15:01.590Z,968.7
2023-01-17T00:20:01.608Z,968.85
2023-01-17T00:25:01.828Z,968.89
2023-01-17T00:30:01.830Z,968.94
2023-01-17T00:35:01.692Z,968.99
2023-01-17T00:40:01.912Z,969.06
2023-01-17T00:45:02.128Z,969.24
2023-01-17T00:50:02.236Z,969.2
2023-01-17T00:55:02.231Z,969.35
2023-01-17T01:00:02.270Z,969.43
2023-01-17T01:05:01.665Z,969.6
2023-01-17T01:10:01.921Z,969.73
2023-01-17T01:15:01.868Z,969.77
2023-01-17T01:20:02.198Z,969.81
2023-01-17T01:25:02.138Z,969.89
2023-01-17T01:30:02.190Z,970.02
2023-01-17T01:35:01.285Z,970.01
2023-01-17T01:40:01.670Z,970.19
2023-01-17T01:45:01.962Z,970.34
2023-01-17T01:50:02.177Z,970.38
2023-01-17T01:55:01.978Z,970.32
2023-01-17T02:00:01.986Z,970.42
2023-01-17T02:05:04.402Z,970.54
2023-01-17T02:10:02.213Z,970.57
2023-01-17T02:15:01.442Z,970.66
2023-01-17T02:20:01.872Z,970.72
2023-01-17T02:25:01.950Z,970.69
2023-01-17T02:30:02.229Z,970.66
2023-01-17T02:35:01.753Z,970.72
2023-01-17T02:40:01.929Z,970.81
2023-01-17T02:45:01.864Z,970.83
2023-01-17T02:50:01.977Z,970.86
2023-01-17T02:55:02.093Z,970.92
2023-01-17T03:00:02.137Z,970.95
2023-01-17T03:05:02.080Z,971.05
2023-01-17T03:10:01.420Z,971.15
2023-01-17T03:15:01.718Z,971.21
2023-01-17T03:20:01.941Z,971.29
2023-01-17T03:25:02.009Z,971.21
2023-01-17T03:30:01.371Z,971.29
2023-01-17T03:35:01.696Z,971.43
2023-01-17T03:40:01.659Z,971.46
2023-01-17T03:45:02.117Z,971.49
2023-01-17T03:50:02.038Z,971.46
2023-01-17T03:55:02.201Z,971.53
2023-01-17T04:00:01.504Z,971.55
2023-01-17T04:05:01.879Z,971.46
2023-01-17T04:10:01.544Z,971.51
2023-01-17T04:15:01.696Z,971.46
2023-01-17T04:20:02.010Z,971.44
2023-01-17T04:25:02.066Z,971.4
2023-01-17T04:30:02.070Z,971.45
2023-01-17T04:35:01.324Z,971.47
2023-01-17T04:40:01.741Z,971.51
2023-01-17T04:45:01.781Z,971.58
2023-01-17T04:50:02.126Z,971.6
2023-01-17T04:55:01.301Z,971.64
2023-01-17T05:00:01.751Z,971.65
2023-01-17T05:05:01.846Z,971.64
2023-01-17T05:10:02.190Z,971.63
2023-01-17T05:15:02.115Z,971.64
2023-01-17T05:20:02.321Z,971.65
2023-01-17T05:25:02.154Z,971.61
2023-01-17T05:30:02.068Z,971.6
2023-01-17T05:35:01.364Z,971.64
2023-01-17T05:40:01.731Z,971.62
2023-01-17T05:45:02.100Z,971.69
2023-01-17T05:50:02.155Z,971.67
2023-01-17T05:55:02.226Z,971.73
2023-01-17T06:00:01.597Z,971.78
2023-01-17T06:05:03.544Z,971.85
2023-01-17T06:10:01.726Z,971.9
2023-01-17T06:15:01.651Z,971.95
2023-01-17T06:20:01.920Z,971.92
2023-01-17T06:25:02.415Z,971.92
2023-01-17T06:30:01.783Z,971.82
2023-01-17T06:35:01.857Z,971.86
2023-01-17T06:40:02.123Z,971.94
2023-01-17T06:45:01.665Z,971.98
2023-01-17T06:50:01.991Z,972
2023-01-17T06:55:01.375Z,972.08
2023-01-17T07:00:01.936Z,972.06
2023-01-17T07:05:01.432Z,972.16
2023-01-17T07:10:01.459Z,972.07
2023-01-17T07:15:01.837Z,972.15
2023-01-17T07:20:01.914Z,972.14
2023-01-17T07:25:01.364Z,972.13
2023-01-17T07:30:01.832Z,972.11
2023-01-17T07:35:02.035Z,972.18
2023-01-17T07:40:02.295Z,972.13
2023-01-17T07:45:02.082Z,972.16
2023-01-17T07:50:01.939Z,972.16
2023-01-17T07:55:02.017Z,972.19
2023-01-17T08:00:01.305Z,972.07
2023-01-17T08:05:02.173Z,972
2023-01-17T08:10:01.797Z,971.94
2023-01-17T08:15:02.267Z,971.99
2023-01-17T08:20:01.923Z,971.97
2023-01-17T08:25:01.754Z,971.99
2023-01-17T08:30:02.211Z,972.04
2023-01-17T08:35:01.566Z,972.12
2023-01-17T08:40:01.963Z,972.19
2023-01-17T08:45:02.024Z,972.26
2023-01-17T08:50:01.326Z,972.3
2023-01-17T08:55:01.710Z,972.39
2023-01-17T09:00:01.955Z,972.32
2023-01-17T09:05:01.654Z,972.36
2023-01-17T09:10:02.245Z,972.33
2023-01-17T09:15:01.361Z,972.31
2023-01-17T09:20:01.820Z,972.28
2023-01-17T09:25:02.118Z,972.32
2023-01-17T09:30:01.368Z,972.29
2023-01-17T09:35:01.866Z,972.34
2023-01-17T09:40:02.007Z,972.28
2023-01-17T09:45:01.355Z,972.29
2023-01-17T09:50:01.849Z,972.38
2023-01-17T09:55:02.257Z,972.47
2023-01-17T10:00:03.823Z,972.49
2023-01-17T10:05:02.242Z,972.48
2023-01-17T10:10:01.301Z,972.48
2023-01-17T10:15:01.869Z,972.52
2023-01-17T10:20:02.275Z,972.52
2023-01-17T10:25:01.395Z,972.53
2023-01-17T10:30:01.831Z,972.55
2023-01-17T10:35:02.174Z,972.54
2023-01-17T10:40:01.430Z,972.55
2023-01-17T10:45:02.042Z,972.48
2023-01-17T10:50:01.426Z,972.49
2023-01-17T10:55:01.805Z,972.45
2023-01-17T11:00:02.044Z,972.45
2023-01-17T11:05:01.350Z,972.42
2023-01-17T11:10:02.178Z,972.37
2023-01-17T11:15:02.258Z,972.25
2023-01-17T11:20:01.335Z,972.25
2023-01-17T11:25:01.876Z,972.23
2023-01-17T11:30:02.181Z,972.17
2023-01-17T11:35:02.174Z,972.23
2023-01-17T11:40:01.371Z,972.21
2023-01-17T11:45:01.863Z,972.19
2023-01-17T11:50:01.840Z,972.19
2023-01-17T11:55:02.122Z,972.2
2023-01-17T12:00:02.288Z,972.16
2023-01-17T12:05:02.016Z,972.07
2023-01-17T12:10:01.528Z,971.98
2023-01-17T12:15:01.585Z,971.8
2023-01-17T12:20:02.276Z,971.76
2023-01-17T12:25:01.615Z,971.72
2023-01-17T12:30:02.224Z,971.67
2023-01-17T12:35:01.776Z,971.61
2023-01-17T12:40:02.080Z,971.49
2023-01-17T12:45:01.343Z,971.44
2023-01-17T12:50:01.884Z,971.42
2023-01-17T12:55:01.969Z,971.43
2023-01-17T13:00:02.268Z,971.42
2023-01-17T13:05:01.435Z,971.41
2023-01-17T13:10:01.288Z,971.42
2023-01-17T13:15:01.667Z,971.47
2023-01-17T13:20:01.411Z,971.58
2023-01-17T13:25:02.120Z,971.5
2023-01-17T13:30:01.565Z,971.37
2023-01-17T13:35:01.937Z,971.39
2023-01-17T13:40:02.060Z,971.42
2023-01-17T13:45:02.201Z,971.46
2023-01-17T13:50:01.542Z,971.46
2023-01-17T13:55:02.033Z,971.4
2023-01-17T14:00:01.387Z,971.41
2023-01-17T14:05:02.316Z,971.44
2023-01-17T14:10:02.243Z,971.48
2023-01-17T14:15:02.228Z,971.45
2023-01-17T14:20:01.602Z,971.51
2023-01-17T14:25:02.095Z,971.48
2023-01-17T14:30:02.547Z,971.5
2023-01-17T14:35:02.146Z,971.5
2023-01-17T14:40:01.832Z,971.52
2023-01-17T14:45:01.727Z,971.49
2023-01-17T14:50:02.004Z,971.43
2023-01-17T14:55:02.279Z,971.46
2023-01-17T15:00:01.337Z,971.47
2023-01-17T15:05:01.832Z,971.5
2023-01-17T15:10:01.553Z,971.43
2023-01-17T15:15:01.482Z,971.43
2023-01-17T15:20:02.133Z,971.35
2023-01-17T15:25:02.216Z,971.38
2023-01-17T15:30:01.836Z,971.4
2023-01-17T15:35:01.528Z,971.44
2023-01-17T15:40:01.766Z,971.43
2023-01-17T15:45:02.096Z,971.46
2023-01-17T15:50:01.356Z,971.42
2023-01-17T15:55:01.612Z,971.42
2023-01-17T16:00:01.994Z,971.48
2023-01-17T16:05:01.448Z,971.61
2023-01-17T16:10:02.146Z,971.6
2023-01-17T16:15:12.337Z,971.63
2023-01-17T16:20:01.795Z,971.65
2023-01-17T16:25:01.989Z,971.66
2023-01-17T16:30:02.298Z,971.68
2023-01-17T16:35:01.777Z,971.71
2023-01-17T16:40:02.235Z,971.73
2023-01-17T16:45:01.278Z,971.77
2023-01-17T16:50:01.696Z,971.8
2023-01-17T16:55:01.806Z,971.9
2023-01-17T17:00:02.143Z,971.93
2023-01-17T17:05:01.477Z,972.01
2023-01-17T17:10:01.925Z,972.11
2023-01-17T17:15:01.963Z,972.11
2023-01-17T17:20:01.454Z,972.26
2023-01-17T17:25:01.805Z,972.24
2023-01-17T17:30:01.977Z,972.26
2023-01-17T17:35:01.344Z,972.4
2023-01-17T17:40:01.793Z,972.41
2023-01-17T17:45:02.096Z,972.46
2023-01-17T17:50:01.319Z,972.47
2023-01-17T17:55:01.930Z,972.5
2023-01-17T18:00:02.033Z,972.55
2023-01-17T18:05:02.381Z,972.61
2023-01-17T18:10:01.812Z,972.66
2023-01-17T18:15:01.479Z,972.67
2023-01-17T18:20:01.455Z,972.72
2023-01-17T18:25:01.431Z,972.77
2023-01-17T18:30:01.312Z,972.81
2023-01-17T18:35:01.798Z,972.85
2023-01-17T18:40:02.225Z,972.85
2023-01-17T18:45:01.653Z,972.9
2023-01-17T18:50:02.071Z,972.92
2023-01-17T18:55:02.133Z,972.99
2023-01-17T19:00:02.255Z,972.99
2023-01-17T19:05:01.810Z,973.02
2023-01-17T19:10:02.168Z,972.96
2023-01-17T19:15:01.723Z,972.96
2023-01-17T19:20:01.351Z,973.12
2023-01-17T19:25:01.739Z,973.22
2023-01-17T19:30:02.072Z,973.25
2023-01-17T19:35:01.734Z,973.26
2023-01-17T19:40:02.218Z,973.3
2023-01-17T19:45:01.595Z,973.38
2023-01-17T19:50:02.069Z,973.51
2023-01-17T19:55:02.230Z,973.54
2023-01-17T20:00:01.492Z,973.49
2023-01-17T20:05:01.837Z,973.5
2023-01-17T20:10:02.220Z,973.58
2023-01-17T20:15:01.784Z,973.66
2023-01-17T20:20:02.200Z,973.64
2023-01-17T20:25:01.479Z,973.71
2023-01-17T20:30:18.605Z,973.76
2023-01-17T20:35:02.206Z,973.82
2023-01-17T20:40:01.417Z,973.91
2023-01-17T20:45:01.663Z,973.94
2023-01-17T20:50:01.907Z,973.93
2023-01-17T20:55:02.045Z,973.93
2023-01-17T21:00:01.490Z,974
2023-01-17T21:05:01.979Z,974.03
2023-01-17T21:10:01.489Z,974.11
2023-01-17T21:15:01.695Z,974.08
2023-01-17T21:20:01.879Z,974.12
2023-01-17T21:25:01.642Z,974.16
2023-01-17T21:30:01.881Z,974.22
2023-01-17T21:35:02.367Z,974.31
2023-01-17T21:40:04.290Z,974.32
2023-01-17T21:45:02.203Z,974.36
2023-01-17T21:50:01.262Z,974.32
2023-01-17T21:55:01.716Z,974.36
2023-01-17T22:00:01.608Z,974.31
2023-01-17T22:05:02.274Z,974.37
2023-01-17T22:10:01.640Z,974.39
2023-01-17T22:15:02.087Z,974.41
2023-01-17T22:20:01.379Z,974.48
2023-01-17T22:25:01.860Z,974.43
2023-01-17T22:30:02.123Z,974.41
2023-01-17T22:35:01.301Z,974.46
2023-01-17T22:40:01.750Z,974.51
2023-01-17T22:45:01.884Z,974.55
2023-01-17T22:50:02.122Z,974.63
2023-01-17T22:55:01.388Z,974.56
2023-01-17T23:00:01.843Z,974.56
2023-01-17T23:05:01.865Z,974.5
2023-01-17T23:10:02.166Z,974.53
2023-01-17T23:15:02.185Z,974.45
2023-01-17T23:20:02.242Z,974.47
2023-01-17T23:25:01.524Z,974.47
2023-01-17T23:30:01.960Z,974.44
2023-01-17T23:35:02.071Z,974.48
2023-01-17T23:40:02.123Z,974.47
2023-01-17T23:45:02.189Z,974.5
2023-01-17T23:50:01.549Z,974.45
2023-01-17T23:55:01.708Z,974.47
